Time;durP1;ratioP1;P1;durP2;ratioP2;P2;SDS_P1;SDS_P2;PMS_P1;PMS_P2;Temp;Humidity;BMP_temperature;BMP_pressure;BME280_temperature;BME280_humidity;BME280_pressure;Samples;Min_cycle;Max_cycle;Signal;HPM_P1;HPM_P2
2021/08/26 00:07:24;;;;;;;9.20;5.25;;;;;;;;;;5034655;28;20040;-66
2021/08/26 00:09:50;;;;;;;10.18;5.40;;;;;;;;;;5035307;28;20026;-67
2021/08/26 00:12:16;;;;;;;9.80;5.60;;;;;;;;;;5034468;28;20025;-67
2021/08/26 00:14:42;;;;;;;9.82;6.13;;;;;;;;;;5034399;28;20048;-67
2021/08/26 00:17:08;;;;;;;11.68;6.07;;;;;;;;;;5034846;28;20496;-66
2021/08/26 00:19:34;;;;;;;12.10;6.93;;;;;;;;;;5035214;28;20017;-66
2021/08/26 00:22:02;;;;;;;10.35;6.90;;;;;;;;;;5034376;28;20020;-66
2021/08/26 00:24:28;;;;;;;11.68;7.10;;;;;;;;;;5034081;28;20413;-67
2021/08/26 00:26:54;;;;;;;15.20;8.38;;;;;;;;;;5034606;28;20024;-66
2021/08/26 00:29:20;;;;;;;13.20;8.45;;;;;;;;;;5034448;28;20033;-67
2021/08/26 00:31:46;;;;;;;13.10;8.63;;;;;;;;;;5030874;28;20044;-67
2021/08/26 00:34:12;;;;;;;13.82;9.75;;;;;;;;;;5033860;28;20067;-67
2021/08/26 00:36:38;;;;;;;16.98;10.15;;;;;;;;;;5023496;28;20029;-67
2021/08/26 00:39:04;;;;;;;14.13;10.60;;;;;;;;;;5034212;28;20033;-66
2021/08/26 00:41:30;;;;;;;16.40;10.45;;;;;;;;;;5034109;28;20048;-67
2021/08/26 00:43:56;;;;;;;15.98;10.68;;;;;;;;;;5033768;28;20076;-67
2021/08/26 00:46:22;;;;;;;17.13;10.30;;;;;;;;;;5033869;28;20061;-66
2021/08/26 00:48:48;;;;;;;13.77;9.85;;;;;;;;;;5034037;28;20021;-67
2021/08/26 00:51:15;;;;;;;19.38;11.13;;;;;;;;;;5033840;28;20052;-66
2021/08/26 00:53:41;;;;;;;16.30;11.65;;;;;;;;;;5012570;28;20032;-66
2021/08/26 00:56:14;;;;;;;19.20;12.40;;;;;;;;;;5022434;28;20404;-66
2021/08/26 00:58:40;;;;;;;17.67;12.05;;;;;;;;;;5023366;28;20014;-67
2021/08/26 01:01:08;;;;;;;25.02;16.80;;;;;;;;;;5033731;28;20500;-66
2021/08/26 01:03:44;;;;;;;17.48;15.38;;;;;;;;;;5033287;28;20044;-66
2021/08/26 01:06:13;;;;;;;20.58;16.23;;;;;;;;;;5033578;28;20427;-67
2021/08/26 01:08:40;;;;;;;19.00;15.55;;;;;;;;;;5033803;28;20018;-66
2021/08/26 01:11:07;;;;;;;18.98;16.60;;;;;;;;;;5033535;28;20034;-66
2021/08/26 01:13:35;;;;;;;22.95;19.27;;;;;;;;;;5031614;28;20488;-67
2021/08/26 01:16:10;;;;;;;24.33;18.67;;;;;;;;;;5033308;28;20021;-67
2021/08/26 01:18:37;;;;;;;21.38;18.50;;;;;;;;;;5033413;28;20029;-66
2021/08/26 01:21:04;;;;;;;22.75;17.77;;;;;;;;;;5028403;28;20493;-67
2021/08/26 01:23:31;;;;;;;24.95;19.98;;;;;;;;;;5033045;28;20072;-66
2021/08/26 01:25:59;;;;;;;19.95;17.83;;;;;;;;;;5033224;28;20021;-67
2021/08/26 01:28:25;;;;;;;23.15;18.55;;;;;;;;;;5024575;28;20112;-67
2021/08/26 01:30:51;;;;;;;20.50;15.60;;;;;;;;;;5033168;28;20030;-67
2021/08/26 01:33:19;;;;;;;20.83;17.08;;;;;;;;;;5032859;28;20025;-67
2021/08/26 01:35:46;;;;;;;26.23;19.60;;;;;;;;;;5033115;28;20444;-67
2021/08/26 01:38:20;;;;;;;20.00;16.63;;;;;;;;;;5020970;28;20036;-67
2021/08/26 01:40:46;;;;;;;27.17;18.75;;;;;;;;;;5021455;28;20492;-67
2021/08/26 01:43:13;;;;;;;24.63;19.67;;;;;;;;;;5032552;28;20030;-67
2021/08/26 01:45:39;;;;;;;23.35;18.38;;;;;;;;;;5015963;28;20033;-67
2021/08/26 01:48:06;;;;;;;20.17;15.65;;;;;;;;;;5032412;28;20022;-67
2021/08/26 01:50:32;;;;;;;18.02;14.45;;;;;;;;;;5032757;28;20018;-67
2021/08/26 01:52:58;;;;;;;20.05;16.48;;;;;;;;;;5019302;28;20018;-66
2021/08/26 01:55:23;;;;;;;16.48;13.23;;;;;;;;;;5032765;28;20396;-67
2021/08/26 01:57:49;;;;;;;13.93;11.20;;;;;;;;;;5033040;28;20029;-67
2021/08/26 02:00:16;;;;;;;12.38;10.02;;;;;;;;;;5032673;28;20547;-67
2021/08/26 02:02:42;;;;;;;12.38;9.45;;;;;;;;;;5032472;28;20022;-67
2021/08/26 02:05:08;;;;;;;12.57;9.55;;;;;;;;;;5017902;28;20091;-67
2021/08/26 02:07:34;;;;;;;11.77;9.10;;;;;;;;;;5032897;28;20381;-67
2021/08/26 02:10:00;;;;;;;10.93;8.57;;;;;;;;;;5032736;28;20025;-67
2021/08/26 02:12:26;;;;;;;9.80;8.73;;;;;;;;;;5032399;28;20021;-67
2021/08/26 02:14:51;;;;;;;7.57;6.60;;;;;;;;;;5032747;28;20025;-66
2021/08/26 02:17:17;;;;;;;9.02;8.13;;;;;;;;;;5032608;28;20029;-66
2021/08/26 02:19:43;;;;;;;7.32;6.63;;;;;;;;;;5029388;28;20022;-66
2021/08/26 02:22:09;;;;;;;9.20;7.43;;;;;;;;;;5019977;28;20029;-66
2021/08/26 02:24:35;;;;;;;7.10;6.32;;;;;;;;;;5031834;28;20029;-66
2021/08/26 02:27:01;;;;;;;7.63;6.70;;;;;;;;;;5026823;28;20416;-66
2021/08/26 02:29:27;;;;;;;8.82;7.28;;;;;;;;;;5014883;28;20025;-68
2021/08/26 02:31:53;;;;;;;7.47;6.68;;;;;;;;;;5032107;28;20505;-68
2021/08/26 02:34:19;;;;;;;6.22;5.68;;;;;;;;;;5032147;28;20108;-67
2021/08/26 02:36:45;;;;;;;7.32;6.53;;;;;;;;;;5020715;28;20026;-67
2021/08/26 02:39:11;;;;;;;8.63;7.70;;;;;;;;;;5031930;28;20025;-67
2021/08/26 02:41:37;;;;;;;7.30;6.60;;;;;;;;;;5031867;28;20029;-67
2021/08/26 02:44:04;;;;;;;7.60;6.82;;;;;;;;;;5025875;28;20033;-67
2021/08/26 02:46:30;;;;;;;7.20;6.50;;;;;;;;;;5031916;28;20021;-67
2021/08/26 02:48:56;;;;;;;7.78;6.97;;;;;;;;;;5032029;28;20053;-67
2021/08/26 02:51:22;;;;;;;7.40;6.72;;;;;;;;;;5029375;28;20443;-66
2021/08/26 02:53:48;;;;;;;7.38;6.68;;;;;;;;;;5025835;28;20026;-67
2021/08/26 02:56:14;;;;;;;9.18;7.03;;;;;;;;;;5020965;28;20492;-67
2021/08/26 02:58:40;;;;;;;10.02;5.78;;;;;;;;;;5030763;28;20151;-67
2021/08/26 03:01:06;;;;;;;12.07;6.05;;;;;;;;;;5031851;28;20064;-67
2021/08/26 03:03:32;;;;;;;7.68;4.97;;;;;;;;;;5015027;28;20028;-67
2021/08/26 03:05:58;;;;;;;11.52;5.57;;;;;;;;;;5031597;28;20394;-67
2021/08/26 03:08:24;;;;;;;8.13;4.65;;;;;;;;;;5031872;28;20048;-67
2021/08/26 03:10:50;;;;;;;10.65;5.07;;;;;;;;;;5031872;28;20137;-67
2021/08/26 03:13:16;;;;;;;14.15;8.27;;;;;;;;;;5031475;28;20076;-67
2021/08/26 03:15:42;;;;;;;241.40;127.97;;;;;;;;;;5015552;28;20040;-67
2021/08/26 03:18:08;;;;;;;21.98;10.88;;;;;;;;;;5025232;28;20025;-67
2021/08/26 03:20:34;;;;;;;14.48;7.47;;;;;;;;;;5031495;28;20079;-67
2021/08/26 03:23:00;;;;;;;15.05;7.05;;;;;;;;;;5031396;28;20100;-67
2021/08/26 03:25:26;;;;;;;552.00;327.17;;;;;;;;;;5017502;28;20065;-67
2021/08/26 03:27:53;;;;;;;19.42;6.68;;;;;;;;;;5027980;28;20071;-67
2021/08/26 03:30:19;;;;;;;46.83;18.08;;;;;;;;;;5031191;28;20306;-67
2021/08/26 03:32:45;;;;;;;21.98;9.52;;;;;;;;;;5031086;28;20362;-68
2021/08/26 03:35:11;;;;;;;33.88;12.70;;;;;;;;;;5031197;28;20049;-68
2021/08/26 03:37:37;;;;;;;16.60;6.88;;;;;;;;;;5031229;28;20026;-67
2021/08/26 03:40:03;;;;;;;22.85;7.28;;;;;;;;;;5031173;28;20021;-67
2021/08/26 03:42:29;;;;;;;32.22;11.32;;;;;;;;;;5021564;28;20171;-67
2021/08/26 03:44:55;;;;;;;28.65;9.82;;;;;;;;;;5031079;28;20492;-67
2021/08/26 03:47:21;;;;;;;18.38;6.32;;;;;;;;;;5031558;28;20469;-67
2021/08/26 03:49:47;;;;;;;19.80;7.05;;;;;;;;;;5027944;28;20009;-68
2021/08/26 03:52:12;;;;;;;16.92;6.60;;;;;;;;;;5018611;28;20053;-67
2021/08/26 03:54:39;;;;;;;13.45;5.43;;;;;;;;;;5018293;28;20029;-67
2021/08/26 03:57:05;;;;;;;12.30;5.45;;;;;;;;;;5025985;28;20021;-67
2021/08/26 03:59:31;;;;;;;14.00;5.65;;;;;;;;;;5031076;28;20033;-66
2021/08/26 04:01:57;;;;;;;13.98;6.00;;;;;;;;;;5030959;28;20025;-67
2021/08/26 04:04:23;;;;;;;17.02;6.25;;;;;;;;;;5020207;28;20052;-67
2021/08/26 04:06:48;;;;;;;15.27;5.35;;;;;;;;;;5030807;28;20061;-67
2021/08/26 04:09:15;;;;;;;13.95;6.50;;;;;;;;;;5027758;28;20032;-67
2021/08/26 04:11:41;;;;;;;14.77;6.50;;;;;;;;;;5034846;28;20021;-67
2021/08/26 04:14:07;;;;;;;13.68;6.55;;;;;;;;;;5034531;28;20091;-67
2021/08/26 04:16:32;;;;;;;13.85;6.28;;;;;;;;;;5025240;28;20500;-67
2021/08/26 04:18:58;;;;;;;11.85;6.00;;;;;;;;;;5034812;28;20033;-67
2021/08/26 04:21:24;;;;;;;10.20;5.90;;;;;;;;;;5034476;28;20108;-67
2021/08/26 04:23:50;;;;;;;15.48;6.50;;;;;;;;;;5034226;28;20025;-68
2021/08/26 04:26:16;;;;;;;15.23;6.70;;;;;;;;;;5023216;28;20028;-67
2021/08/26 04:28:42;;;;;;;15.20;7.28;;;;;;;;;;5034716;28;20026;-67
2021/08/26 04:31:08;;;;;;;11.13;7.00;;;;;;;;;;5034284;28;20188;-67
2021/08/26 04:33:34;;;;;;;13.60;6.80;;;;;;;;;;5034146;28;20071;-67
2021/08/26 04:36:00;;;;;;;8.95;5.78;;;;;;;;;;5028852;28;20013;-67
2021/08/26 04:38:26;;;;;;;11.70;6.13;;;;;;;;;;5034256;28;20029;-67
2021/08/26 04:40:52;;;;;;;13.85;6.18;;;;;;;;;;5034494;28;20037;-67
2021/08/26 04:43:19;;;;;;;9.27;5.57;;;;;;;;;;5034041;28;20033;-67
2021/08/26 04:45:45;;;;;;;10.00;5.00;;;;;;;;;;5018318;28;20028;-66
2021/08/26 04:48:10;;;;;;;14.23;5.90;;;;;;;;;;5027417;28;20014;-67
2021/08/26 04:50:36;;;;;;;11.73;5.45;;;;;;;;;;5024800;28;20026;-67
2021/08/26 04:53:02;;;;;;;10.48;5.15;;;;;;;;;;5033550;28;20029;-67
2021/08/26 04:55:28;;;;;;;12.55;6.20;;;;;;;;;;5017188;28;20030;-67
2021/08/26 04:57:54;;;;;;;12.63;6.45;;;;;;;;;;5029237;28;20124;-66
2021/08/26 05:00:20;;;;;;;8.73;5.55;;;;;;;;;;5033790;28;20136;-67
2021/08/26 05:02:46;;;;;;;11.00;4.63;;;;;;;;;;5033135;28;20160;-67
2021/08/26 05:05:12;;;;;;;10.60;5.43;;;;;;;;;;5060441;22;20100;-68
2021/08/26 05:07:38;;;;;;;7.85;3.90;;;;;;;;;;5072102;28;20077;-72
2021/08/26 05:10:04;;;;;;;6.35;3.95;;;;;;;;;;5075117;28;20024;-71
2021/08/26 05:12:31;;;;;;;11.38;4.95;;;;;;;;;;5074992;28;20110;-72
2021/08/26 05:14:57;;;;;;;9.60;4.18;;;;;;;;;;5093364;28;20104;-73
2021/08/26 05:17:23;;;;;;;7.18;4.22;;;;;;;;;;5074468;28;20029;-72
2021/08/26 05:19:49;;;;;;;12.52;4.28;;;;;;;;;;5073425;28;20023;-72
2021/08/26 05:22:15;;;;;;;7.53;4.53;;;;;;;;;;5072231;28;20424;-70
2021/08/26 05:24:41;;;;;;;12.35;4.07;;;;;;;;;;5051327;28;20029;-71
2021/08/26 05:27:07;;;;;;;10.38;4.25;;;;;;;;;;5069510;28;20024;-72
2021/08/26 05:29:33;;;;;;;10.40;4.43;;;;;;;;;;5072852;28;20021;-71
2021/08/26 05:31:59;;;;;;;8.82;3.70;;;;;;;;;;5072944;28;20380;-71
2021/08/26 05:34:25;;;;;;;14.73;4.53;;;;;;;;;;5054065;28;20028;-72
2021/08/26 05:36:51;;;;;;;12.93;4.22;;;;;;;;;;5070308;28;20032;-73
2021/08/26 05:39:17;;;;;;;10.40;4.60;;;;;;;;;;5057571;28;20032;-72
2021/08/26 05:41:46;;;;;;;8.48;4.60;;;;;;;;;;5070789;28;20099;-72
2021/08/26 05:44:13;;;;;;;13.15;4.50;;;;;;;;;;5070017;28;20063;-70
2021/08/26 05:46:39;;;;;;;10.10;4.18;;;;;;;;;;5070355;28;20074;-71
2021/08/26 05:49:05;;;;;;;16.90;5.13;;;;;;;;;;5070213;28;20029;-72
2021/08/26 05:51:31;;;;;;;12.27;5.20;;;;;;;;;;5054228;28;20281;-72
2021/08/26 05:53:57;;;;;;;11.60;5.13;;;;;;;;;;5064874;28;20112;-73
2021/08/26 05:56:23;;;;;;;9.07;4.03;;;;;;;;;;5062983;28;20057;-72
2021/08/26 05:58:49;;;;;;;11.73;4.57;;;;;;;;;;5054226;28;20024;-71
2021/08/26 06:01:15;;;;;;;14.05;4.43;;;;;;;;;;5054066;28;20032;-72
2021/08/26 06:03:41;;;;;;;15.57;4.75;;;;;;;;;;5053856;28;20028;-72
2021/08/26 06:06:06;;;;;;;15.00;5.80;;;;;;;;;;5072283;28;20034;-72
2021/08/26 06:08:32;;;;;;;10.57;4.18;;;;;;;;;;5072387;28;20043;-72
2021/08/26 06:10:58;;;;;;;14.13;4.68;;;;;;;;;;5070665;28;20016;-71
2021/08/26 06:13:24;;;;;;;18.23;10.05;;;;;;;;;;5071585;28;20078;-68
2021/08/26 06:15:51;;;;;;;17.38;5.25;;;;;;;;;;5071658;28;20023;-70
2021/08/26 06:18:17;;;;;;;10.40;4.88;;;;;;;;;;5053373;28;20070;-69
2021/08/26 06:20:44;;;;;;;12.50;5.45;;;;;;;;;;5061750;28;20029;-70
2021/08/26 06:23:10;;;;;;;19.05;9.90;;;;;;;;;;5071478;28;20434;-71
2021/08/26 06:25:36;;;;;;;20.67;6.10;;;;;;;;;;5053264;28;20039;-71
2021/08/26 06:28:02;;;;;;;16.98;7.07;;;;;;;;;;5071737;28;20047;-71
2021/08/26 06:30:28;;;;;;;31.98;15.85;;;;;;;;;;5053785;28;20407;-69
2021/08/26 06:32:54;;;;;;;95.22;49.50;;;;;;;;;;5071047;28;20024;-70
2021/08/26 06:35:20;;;;;;;43.33;23.00;;;;;;;;;;5071433;28;20028;-70
2021/08/26 06:37:46;;;;;;;28.48;15.70;;;;;;;;;;5070135;28;20025;-69
2021/08/26 06:40:12;;;;;;;21.65;8.23;;;;;;;;;;5070321;28;20067;-70
2021/08/26 06:42:38;;;;;;;38.70;23.20;;;;;;;;;;5069683;28;20020;-70
2021/08/26 06:45:04;;;;;;;19.90;9.50;;;;;;;;;;5060319;28;20035;-71
2021/08/26 06:47:30;;;;;;;17.50;8.38;;;;;;;;;;5054146;28;20035;-67
2021/08/26 06:49:56;;;;;;;31.27;14.48;;;;;;;;;;5053576;28;20013;-72
2021/08/26 06:52:22;;;;;;;19.55;6.32;;;;;;;;;;5071207;28;20422;-71
2021/08/26 06:54:48;;;;;;;23.63;11.20;;;;;;;;;;5071404;28;20021;-69
2021/08/26 06:57:14;;;;;;;49.30;30.20;;;;;;;;;;5071274;28;20479;-69
2021/08/26 06:59:40;;;;;;;14.73;6.43;;;;;;;;;;5069958;28;20028;-71
2021/08/26 07:02:06;;;;;;;18.67;6.97;;;;;;;;;;5071206;28;20126;-73
2021/08/26 07:04:32;;;;;;;22.10;9.65;;;;;;;;;;5071047;28;20533;-72
2021/08/26 07:06:58;;;;;;;29.25;14.73;;;;;;;;;;5052967;28;20039;-70
2021/08/26 07:09:24;;;;;;;37.78;17.02;;;;;;;;;;5070856;28;20024;-72
2021/08/26 07:11:50;;;;;;;26.15;14.02;;;;;;;;;;5069233;28;20086;-67
2021/08/26 07:14:17;;;;;;;14.77;8.02;;;;;;;;;;5070914;28;20024;-68
2021/08/26 07:16:43;;;;;;;23.88;7.13;;;;;;;;;;5070664;28;20115;-70
2021/08/26 07:19:09;;;;;;;16.67;8.73;;;;;;;;;;5069816;28;20024;-70
2021/08/26 07:21:35;;;;;;;14.30;6.13;;;;;;;;;;5070677;28;20043;-71
2021/08/26 07:24:01;;;;;;;16.23;6.93;;;;;;;;;;5070728;28;20033;-71
2021/08/26 07:26:27;;;;;;;17.35;6.65;;;;;;;;;;5071212;28;20029;-71
2021/08/26 07:28:54;;;;;;;18.50;6.18;;;;;;;;;;5053114;28;20032;-73
2021/08/26 07:31:20;;;;;;;11.45;5.07;;;;;;;;;;5053152;28;20368;-72
2021/08/26 07:33:46;;;;;;;19.65;7.03;;;;;;;;;;5053220;28;20171;-72
2021/08/26 07:36:12;;;;;;;18.15;5.85;;;;;;;;;;5071109;28;20096;-71
2021/08/26 07:38:38;;;;;;;14.35;6.75;;;;;;;;;;5070905;28;20090;-72
2021/08/26 07:41:04;;;;;;;15.20;5.68;;;;;;;;;;5071509;28;20104;-70
2021/08/26 07:43:31;;;;;;;12.57;5.10;;;;;;;;;;5070807;28;20047;-70
2021/08/26 07:45:57;;;;;;;14.43;6.50;;;;;;;;;;5056131;28;20082;-70
2021/08/26 07:48:24;;;;;;;21.48;6.97;;;;;;;;;;5056851;28;20025;-71
2021/08/26 07:50:53;;;;;;;18.67;8.15;;;;;;;;;;5074631;28;20028;-70
2021/08/26 07:53:19;;;;;;;16.83;7.38;;;;;;;;;;5074693;28;20017;-71
2021/08/26 07:55:44;;;;;;;112.82;68.90;;;;;;;;;;5074908;28;20028;-70
2021/08/26 07:58:10;;;;;;;26.52;14.90;;;;;;;;;;5073168;28;20029;-73
2021/08/26 08:00:36;;;;;;;22.00;12.90;;;;;;;;;;5074751;28;20033;-70
2021/08/26 08:03:03;;;;;;;21.08;12.93;;;;;;;;;;5074429;28;20024;-67
2021/08/26 08:05:29;;;;;;;14.88;7.32;;;;;;;;;;5074008;28;20051;-71
2021/08/26 08:07:55;;;;;;;18.23;7.68;;;;;;;;;;5074621;28;20024;-71
2021/08/26 08:10:21;;;;;;;15.75;7.35;;;;;;;;;;5056663;28;20024;-72
2021/08/26 08:12:47;;;;;;;16.65;8.20;;;;;;;;;;5055984;28;20087;-70
2021/08/26 08:15:13;;;;;;;17.35;8.52;;;;;;;;;;5056069;28;20395;-71
2021/08/26 08:17:39;;;;;;;19.13;7.05;;;;;;;;;;5073990;28;20020;-72
2021/08/26 08:20:06;;;;;;;18.08;9.80;;;;;;;;;;5056153;28;20051;-72
2021/08/26 08:22:32;;;;;;;14.23;7.32;;;;;;;;;;5074005;28;20090;-69
2021/08/26 08:24:58;;;;;;;20.05;10.68;;;;;;;;;;5074247;28;20020;-70
2021/08/26 08:27:24;;;;;;;20.48;9.57;;;;;;;;;;5072605;28;20020;-71
2021/08/26 08:29:49;;;;;;;13.63;7.40;;;;;;;;;;5074076;28;20019;-70
2021/08/26 08:32:15;;;;;;;17.55;7.70;;;;;;;;;;5073840;28;20032;-68
2021/08/26 08:34:41;;;;;;;22.23;11.43;;;;;;;;;;5056060;28;20032;-70
2021/08/26 08:37:07;;;;;;;22.42;8.77;;;;;;;;;;5073882;28;20029;-70
2021/08/26 08:39:34;;;;;;;16.35;6.57;;;;;;;;;;5072810;28;20024;-67
2021/08/26 08:42:00;;;;;;;14.18;6.18;;;;;;;;;;5073615;28;20032;-70
2021/08/26 08:44:26;;;;;;;18.33;7.47;;;;;;;;;;5072166;28;20060;-69
2021/08/26 08:46:55;;;;;;;14.85;7.68;;;;;;;;;;5067627;28;20124;-69
2021/08/26 08:49:21;;;;;;;13.32;6.15;;;;;;;;;;5070984;28;20025;-70
2021/08/26 08:51:48;;;;;;;14.05;7.55;;;;;;;;;;5065352;28;20396;-69
2021/08/26 08:54:14;;;;;;;11.85;6.00;;;;;;;;;;5039992;28;20032;-70
2021/08/26 08:56:40;;;;;;;16.33;6.03;;;;;;;;;;5066907;28;20033;-71
2021/08/26 08:59:06;;;;;;;17.70;7.97;;;;;;;;;;5073649;28;20055;-70
2021/08/26 09:01:32;;;;;;;11.32;5.55;;;;;;;;;;5068545;28;20073;-69
2021/08/26 09:03:58;;;;;;;12.43;6.00;;;;;;;;;;5055095;28;20024;-68
2021/08/26 09:06:37;;;;;;;17.77;8.68;;;;;;;;;;5072987;28;20028;-71
2021/08/26 09:09:05;;;;;;;16.85;7.38;;;;;;;;;;5073177;28;20356;-69
2021/08/26 09:11:31;;;;;;;12.65;6.68;;;;;;;;;;5055061;28;20131;-70
2021/08/26 09:14:06;;;;;;;18.67;8.80;;;;;;;;;;5073081;28;20016;-70
2021/08/26 09:16:37;;;;;;;15.23;5.40;;;;;;;;;;5073170;28;20066;-68
2021/08/26 09:19:16;;;;;;;15.57;9.85;;;;;;;;;;5073142;28;20021;-70
2021/08/26 09:21:42;;;;;;;15.90;8.57;;;;;;;;;;5055432;28;20024;-69
2021/08/26 09:24:08;;;;;;;15.32;8.23;;;;;;;;;;5072675;28;20024;-69
2021/08/26 09:26:34;;;;;;;11.85;6.40;;;;;;;;;;5072911;28;20055;-69
2021/08/26 09:29:01;;;;;;;15.43;4.90;;;;;;;;;;5060690;28;20485;-71
2021/08/26 09:31:28;;;;;;;14.90;5.07;;;;;;;;;;5070871;28;20056;-71
2021/08/26 09:33:57;;;;;;;15.52;8.05;;;;;;;;;;5072127;28;20020;-69
2021/08/26 09:36:27;;;;;;;15.43;6.82;;;;;;;;;;5049215;28;20039;-69
2021/08/26 09:39:01;;;;;;;17.98;6.53;;;;;;;;;;5035183;28;20491;-69
2021/08/26 09:41:42;;;;;;;12.25;4.70;;;;;;;;;;5070481;28;20024;-70
2021/08/26 09:44:29;;;;;;;10.35;4.93;;;;;;;;;;5071222;28;20488;-70
2021/08/26 09:46:56;;;;;;;16.35;7.35;;;;;;;;;;5053331;28;20071;-70
2021/08/26 09:49:24;;;;;;;10.25;4.78;;;;;;;;;;5053925;28;20028;-71
2021/08/26 09:52:02;;;;;;;14.45;6.22;;;;;;;;;;5071671;28;20028;-67
2021/08/26 09:54:32;;;;;;;16.65;5.60;;;;;;;;;;5053107;28;20036;-70
2021/08/26 09:56:58;;;;;;;18.10;6.90;;;;;;;;;;5067076;28;20028;-70
2021/08/26 09:59:43;;;;;;;12.18;5.53;;;;;;;;;;5072274;28;20060;-71
2021/08/26 10:02:09;;;;;;;12.82;4.20;;;;;;;;;;5072240;28;20463;-69
2021/08/26 10:04:35;;;;;;;13.02;5.63;;;;;;;;;;5053948;28;20031;-71
2021/08/26 10:07:01;;;;;;;14.40;4.25;;;;;;;;;;5071655;28;20032;-71
2021/08/26 10:09:27;;;;;;;14.32;6.20;;;;;;;;;;5054165;28;20036;-71
2021/08/26 10:11:53;;;;;;;15.60;4.57;;;;;;;;;;5069961;28;20020;-70
2021/08/26 10:14:19;;;;;;;9.80;4.78;;;;;;;;;;5053945;28;20029;-70
2021/08/26 10:16:46;;;;;;;11.85;4.30;;;;;;;;;;5071914;28;20029;-72
2021/08/26 10:19:13;;;;;;;12.35;4.20;;;;;;;;;;5071582;28;20047;-70
2021/08/26 10:21:39;;;;;;;16.00;5.10;;;;;;;;;;5054220;28;20399;-71
2021/08/26 10:24:05;;;;;;;12.68;5.28;;;;;;;;;;5053629;28;20038;-71
2021/08/26 10:26:32;;;;;;;11.02;4.20;;;;;;;;;;5053831;28;20036;-70
2021/08/26 10:28:58;;;;;;;9.07;4.10;;;;;;;;;;5071557;28;20021;-71
2021/08/26 10:31:35;;;;;;;15.85;4.03;;;;;;;;;;5053060;28;20044;-69
2021/08/26 10:34:20;;;;;;;10.07;4.05;;;;;;;;;;5071118;28;20639;-70
2021/08/26 10:36:55;;;;;;;9.43;4.75;;;;;;;;;;5071640;28;20052;-70
2021/08/26 10:39:32;;;;;;;13.75;4.53;;;;;;;;;;5071698;28;20090;-70
2021/08/26 10:42:18;;;;;;;23.38;4.45;;;;;;;;;;5071696;28;20661;-70
2021/08/26 10:45:02;;;;;;;13.52;4.85;;;;;;;;;;5053429;28;20399;-71
2021/08/26 10:47:46;;;;;;;10.63;5.03;;;;;;;;;;5071289;28;20074;-71
2021/08/26 10:50:16;;;;;;;15.30;5.78;;;;;;;;;;5071616;28;20050;-71
2021/08/26 10:52:59;;;;;;;18.60;6.80;;;;;;;;;;5071237;28;20043;-71
2021/08/26 10:55:31;;;;;;;19.27;7.70;;;;;;;;;;5071382;28;20051;-70
2021/08/26 10:58:16;;;;;;;21.73;9.18;;;;;;;;;;5071241;28;20100;-71
2021/08/26 11:00:42;;;;;;;21.30;8.98;;;;;;;;;;5071108;28;20032;-70
2021/08/26 11:03:09;;;;;;;19.38;9.10;;;;;;;;;;5070787;28;20475;-71
2021/08/26 11:05:35;;;;;;;19.75;9.27;;;;;;;;;;5070691;28;20029;-69
2021/08/26 11:08:01;;;;;;;25.83;11.13;;;;;;;;;;5088050;22;20051;-69
2021/08/26 11:10:28;;;;;;;40.70;16.30;;;;;;;;;;5053011;28;20024;-70
2021/08/26 11:13:13;;;;;;;33.55;13.50;;;;;;;;;;5070918;28;20024;-69
2021/08/26 11:15:39;;;;;;;22.88;11.02;;;;;;;;;;5071053;28;20028;-69
2021/08/26 11:18:40;;;;;;;21.88;9.90;;;;;;;;;;5084428;28;20104;-67
2021/08/26 11:21:06;;;;;;;20.83;11.30;;;;;;;;;;5009001;28;20040;-66
2021/08/26 11:23:47;;;;;;;24.38;10.43;;;;;;;;;;5074552;28;20041;-67
2021/08/26 11:26:31;;;;;;;34.65;14.05;;;;;;;;;;5091525;28;20435;-67
2021/08/26 11:29:17;;;;;;;18.35;10.73;;;;;;;;;;5090957;28;20062;-67
2021/08/26 11:31:44;;;;;;;20.60;9.00;;;;;;;;;;5091106;28;20097;-67
2021/08/26 11:34:10;;;;;;;12.70;6.65;;;;;;;;;;5091374;28;20111;-67
2021/08/26 11:36:36;;;;;;;17.15;7.45;;;;;;;;;;5091391;28;20125;-67
2021/08/26 11:39:02;;;;;;;14.75;7.63;;;;;;;;;;5091366;28;20440;-67
2021/08/26 11:41:28;;;;;;;10.55;4.80;;;;;;;;;;5091405;28;20451;-68
2021/08/26 11:43:54;;;;;;;12.93;6.05;;;;;;;;;;5090899;28;20024;-66
2021/08/26 11:46:20;;;;;;;11.90;4.65;;;;;;;;;;5091048;28;20073;-66
2021/08/26 11:48:53;;;;;;;11.02;4.35;;;;;;;;;;5091213;28;20441;-66
2021/08/26 11:51:23;;;;;;;10.43;4.00;;;;;;;;;;5091236;28;20028;-67
2021/08/26 11:53:49;;;;;;;10.98;4.07;;;;;;;;;;5091006;28;20108;-67
2021/08/26 11:56:15;;;;;;;10.65;4.50;;;;;;;;;;5091236;28;20063;-66
2021/08/26 11:58:41;;;;;;;9.02;4.45;;;;;;;;;;5072832;28;20077;-67
2021/08/26 12:01:07;;;;;;;10.25;4.03;;;;;;;;;;5091261;28;20391;-67
2021/08/26 12:03:33;;;;;;;11.48;3.85;;;;;;;;;;5072955;28;20428;-66
2021/08/26 12:05:59;;;;;;;5.47;3.25;;;;;;;;;;5091189;28;20024;-67
2021/08/26 12:08:25;;;;;;;8.18;3.55;;;;;;;;;;5090932;28;20036;-67
2021/08/26 12:10:53;;;;;;;8.07;3.22;;;;;;;;;;5072925;28;20031;-67
2021/08/26 12:13:20;;;;;;;7.55;4.00;;;;;;;;;;5061548;28;20050;-67
2021/08/26 12:15:47;;;;;;;6.20;3.03;;;;;;;;;;5069386;28;20082;-66
2021/08/26 12:18:23;;;;;;;6.45;2.47;;;;;;;;;;5072582;28;20030;-66
2021/08/26 12:20:51;;;;;;;7.45;2.95;;;;;;;;;;5090844;28;20031;-66
2021/08/26 12:23:20;;;;;;;5.35;2.40;;;;;;;;;;5090746;28;20398;-66
2021/08/26 12:26:03;;;;;;;6.63;2.85;;;;;;;;;;5072767;28;20604;-66
2021/08/26 12:28:35;;;;;;;8.90;3.78;;;;;;;;;;5090917;28;20020;-66
2021/08/26 12:31:01;;;;;;;10.35;2.88;;;;;;;;;;5092621;28;20437;-66
2021/08/26 12:33:27;;;;;;;6.40;2.72;;;;;;;;;;5094294;28;20054;-67
2021/08/26 12:35:54;;;;;;;5.15;2.15;;;;;;;;;;5094521;28;20028;-67
2021/08/26 12:38:34;;;;;;;6.10;2.97;;;;;;;;;;5094499;28;20375;-67
2021/08/26 12:41:01;;;;;;;4.30;2.00;;;;;;;;;;5076374;28;20195;-67
2021/08/26 12:43:38;;;;;;;6.07;2.30;;;;;;;;;;5094087;28;20417;-66
2021/08/26 12:46:06;;;;;;;3.80;1.77;;;;;;;;;;5094206;28;20028;-67
2021/08/26 12:48:36;;;;;;;3.88;1.35;;;;;;;;;;5093929;28;20020;-66
2021/08/26 12:51:05;;;;;;;3.22;1.40;;;;;;;;;;5094020;28;20020;-67
2021/08/26 12:53:30;;;;;;;5.60;1.58;;;;;;;;;;5094008;28;20043;-66
2021/08/26 12:56:00;;;;;;;3.40;1.23;;;;;;;;;;5094119;28;20035;-66
2021/08/26 12:58:26;;;;;;;1.33;0.90;;;;;;;;;;5094035;28;20032;-67
2021/08/26 13:00:53;;;;;;;2.13;1.15;;;;;;;;;;5075944;28;20021;-66
2021/08/26 13:03:19;;;;;;;2.53;1.10;;;;;;;;;;5093716;28;20048;-67
2021/08/26 13:05:46;;;;;;;1.95;0.95;;;;;;;;;;5093990;28;20028;-67
2021/08/26 13:08:12;;;;;;;2.78;0.73;;;;;;;;;;5094106;28;20040;-67
2021/08/26 13:10:39;;;;;;;2.00;0.85;;;;;;;;;;5093667;28;20036;-67
2021/08/26 13:13:14;;;;;;;3.05;1.10;;;;;;;;;;5071358;28;20017;-66
2021/08/26 13:15:40;;;;;;;2.42;1.02;;;;;;;;;;5073469;28;20058;-67
2021/08/26 13:18:06;;;;;;;1.35;0.70;;;;;;;;;;5074453;28;20029;-67
2021/08/26 13:20:35;;;;;;;2.97;1.17;;;;;;;;;;5093457;28;20107;-67
2021/08/26 13:23:01;;;;;;;2.00;0.80;;;;;;;;;;5093361;28;20034;-67
2021/08/26 13:25:27;;;;;;;5.72;1.85;;;;;;;;;;5093467;28;20536;-67
2021/08/26 13:27:55;;;;;;;1.30;1.05;;;;;;;;;;5074913;28;20028;-66
2021/08/26 13:30:21;;;;;;;3.85;1.60;;;;;;;;;;5093398;28;20016;-67
2021/08/26 13:32:47;;;;;;;2.28;1.30;;;;;;;;;;5092850;28;20091;-66
2021/08/26 13:35:13;;;;;;;1.88;1.00;;;;;;;;;;5093313;28;20032;-66
2021/08/26 13:37:40;;;;;;;3.22;1.58;;;;;;;;;;5093262;28;20069;-66
2021/08/26 13:40:07;;;;;;;5.25;1.67;;;;;;;;;;5093321;28;20099;-67
2021/08/26 13:42:33;;;;;;;7.50;1.67;;;;;;;;;;5073911;28;20036;-67
2021/08/26 13:44:59;;;;;;;5.97;2.80;;;;;;;;;;5092889;28;20097;-67
2021/08/26 13:47:25;;;;;;;5.40;2.42;;;;;;;;;;5093065;28;20024;-67
2021/08/26 13:49:51;;;;;;;5.15;1.90;;;;;;;;;;5093370;28;20063;-68
2021/08/26 13:52:17;;;;;;;5.10;1.85;;;;;;;;;;5092981;28;20031;-67
2021/08/26 13:54:43;;;;;;;5.25;1.27;;;;;;;;;;5093136;28;20027;-66
2021/08/26 13:57:09;;;;;;;3.45;1.40;;;;;;;;;;5074809;28;20031;-66
2021/08/26 13:59:35;;;;;;;2.58;1.20;;;;;;;;;;5092757;28;20040;-67
2021/08/26 14:02:01;;;;;;;3.17;0.70;;;;;;;;;;5092794;28;20035;-67
2021/08/26 14:04:27;;;;;;;2.88;1.50;;;;;;;;;;5074277;28;20031;-67
2021/08/26 14:06:53;;;;;;;0.75;0.65;;;;;;;;;;5092622;28;20483;-66
2021/08/26 14:09:19;;;;;;;1.00;0.73;;;;;;;;;;5093018;28;20050;-67
2021/08/26 14:11:45;;;;;;;1.52;0.57;;;;;;;;;;5092819;28;20020;-67
2021/08/26 14:14:11;;;;;;;1.67;0.90;;;;;;;;;;5070840;28;20052;-66
2021/08/26 14:16:38;;;;;;;3.95;1.00;;;;;;;;;;5054987;28;20503;-66
2021/08/26 14:19:04;;;;;;;1.92;0.93;;;;;;;;;;5082004;28;20028;-66
2021/08/26 14:21:30;;;;;;;4.18;2.10;;;;;;;;;;5074662;28;20024;-66
2021/08/26 14:23:55;;;;;;;3.38;1.77;;;;;;;;;;5074288;28;20032;-66
2021/08/26 14:26:21;;;;;;;5.97;1.95;;;;;;;;;;5092725;28;20036;-66
2021/08/26 14:28:48;;;;;;;3.42;1.45;;;;;;;;;;5092460;28;20064;-67
2021/08/26 14:31:14;;;;;;;3.05;1.65;;;;;;;;;;5074215;28;20023;-65
2021/08/26 14:33:40;;;;;;;2.15;1.45;;;;;;;;;;5091897;28;20028;-66
2021/08/26 14:36:07;;;;;;;2.78;1.45;;;;;;;;;;5092117;28;20027;-67
2021/08/26 14:38:33;;;;;;;2.53;1.10;;;;;;;;;;5092216;28;20086;-68